createdAt,value
2018-12-11T00:04:47.324Z,10.63
2018-12-11T00:10:42.350Z,7.05
2018-12-11T00:16:37.324Z,6.96
2018-12-11T00:22:32.350Z,6.23
2018-12-11T00:28:27.339Z,6.1
2018-12-11T00:34:22.342Z,6.04
2018-12-11T00:40:17.335Z,6.81
2018-12-11T00:46:12.345Z,7.53
2018-12-11T00:52:07.345Z,5.74
2018-12-11T00:58:02.350Z,4.37
2018-12-11T01:03:57.375Z,3.11
2018-12-11T01:09:52.337Z,3
2018-12-11T01:15:47.361Z,2.43
2018-12-11T01:21:42.411Z,2
2018-12-11T01:27:37.345Z,1.55
2018-12-11T01:33:32.343Z,1.41
2018-12-11T01:39:27.402Z,2.1
2018-12-11T01:45:22.350Z,1.48
2018-12-11T01:51:17.397Z,1.49
2018-12-11T01:57:12.348Z,2.31
2018-12-11T02:03:07.407Z,1.62
2018-12-11T02:09:02.353Z,1.26
2018-12-11T02:14:57.342Z,1.34
2018-12-11T02:20:52.365Z,1.59
2018-12-11T02:26:47.376Z,1.49
2018-12-11T02:32:42.407Z,2.36
2018-12-11T02:38:37.368Z,2.12
2018-12-11T02:44:32.389Z,2.98
2018-12-11T02:50:27.389Z,1.85
2018-12-11T02:56:22.361Z,1.24
2018-12-11T03:02:17.358Z,1.16
2018-12-11T03:08:12.367Z,1
2018-12-11T03:14:07.357Z,1.03
2018-12-11T03:20:02.369Z,1.37
2018-12-11T03:25:57.365Z,1.1
2018-12-11T03:31:52.392Z,2.03
2018-12-11T03:37:47.430Z,1.9
2018-12-11T03:43:42.378Z,2.82
2018-12-11T03:49:37.389Z,2.49
2018-12-11T03:55:32.403Z,2.89
2018-12-11T04:01:27.373Z,3.14
2018-12-11T04:07:22.383Z,2
2018-12-11T04:13:17.377Z,1.72
2018-12-11T04:19:12.374Z,1.67
2018-12-11T04:25:07.422Z,1.13
2018-12-11T04:31:02.398Z,0.95
2018-12-11T04:36:57.393Z,0.89
2018-12-11T04:42:52.389Z,0.82
2018-12-11T04:48:47.375Z,0.64
2018-12-11T04:54:42.471Z,0.81
2018-12-11T05:00:37.420Z,0.92
2018-12-11T05:06:33.475Z,0.67
2018-12-11T05:12:27.406Z,1.15
2018-12-11T05:18:22.410Z,0.89
2018-12-11T05:24:17.401Z,1.38
2018-12-11T05:30:12.440Z,1.98
2018-12-11T05:36:07.429Z,3.38
2018-12-11T05:42:02.402Z,2.43
2018-12-11T05:47:57.397Z,5.03
2018-12-11T05:53:52.407Z,4.44
2018-12-11T05:59:47.426Z,2.66
2018-12-11T06:05:42.466Z,2.7
2018-12-11T06:11:37.421Z,1.96
2018-12-11T06:17:32.422Z,2.28
2018-12-11T06:23:27.448Z,2.02
2018-12-11T06:29:22.431Z,1.74
2018-12-11T06:35:17.476Z,2.71
2018-12-11T06:41:12.391Z,3.04
2018-12-11T06:47:07.451Z,3.93
2018-12-11T06:53:02.406Z,2.71
2018-12-11T06:58:57.420Z,4.74
2018-12-11T07:04:52.432Z,3
2018-12-11T07:10:47.433Z,3.76
2018-12-11T07:16:42.485Z,3.15
2018-12-11T07:22:37.471Z,2.67
2018-12-11T07:28:32.430Z,2.72
2018-12-11T07:34:27.420Z,2.8
2018-12-11T07:40:22.419Z,3.43
2018-12-11T07:46:17.423Z,2.17
2018-12-11T07:52:12.424Z,3.14
2018-12-11T07:58:07.437Z,4.36
2018-12-11T08:04:02.426Z,5.02
2018-12-11T08:09:57.431Z,5.19
2018-12-11T08:15:52.452Z,5.24
2018-12-11T08:21:47.449Z,5.83
2018-12-11T08:27:42.507Z,4.36
2018-12-11T08:33:37.440Z,5.91
2018-12-11T08:39:32.468Z,7.44
2018-12-11T08:45:27.454Z,12.16
2018-12-11T08:51:22.489Z,13.91
2018-12-11T08:57:17.433Z,15.59
2018-12-11T09:03:12.480Z,12.5
2018-12-11T09:09:07.469Z,15.31
2018-12-11T09:15:02.447Z,12.41
2018-12-11T09:20:57.448Z,14.13
2018-12-11T09:26:52.429Z,12.81
2018-12-11T09:32:47.433Z,14.86
2018-12-11T09:38:42.426Z,14.16
2018-12-11T09:44:37.441Z,14.21
2018-12-11T09:50:32.479Z,14.42
2018-12-11T09:56:27.458Z,14.4
2018-12-11T10:02:22.486Z,15.23
2018-12-11T10:08:17.438Z,14.6
2018-12-11T10:14:12.478Z,15.16
2018-12-11T10:20:07.450Z,15.82
2018-12-11T10:26:02.470Z,16.68
2018-12-11T10:31:57.460Z,16.31
2018-12-11T10:37:52.524Z,15.99
2018-12-11T10:43:47.460Z,15.86
2018-12-11T10:49:42.472Z,15.95
2018-12-11T10:55:37.505Z,17.38
2018-12-11T11:01:32.476Z,16.62
2018-12-11T11:07:27.561Z,17.94
2018-12-11T11:13:22.520Z,16.57
2018-12-11T11:19:17.483Z,18.2
2018-12-11T11:25:12.487Z,15.55
2018-12-11T11:31:07.492Z,13.6
2018-12-11T11:37:02.459Z,13.58
2018-12-11T11:42:57.491Z,12.45
2018-12-11T11:48:52.469Z,7.6
2018-12-11T11:54:47.460Z,1.17
2018-12-11T12:00:42.473Z,1.24
2018-12-11T12:06:37.479Z,0.73
2018-12-11T12:12:32.493Z,1.02
2018-12-11T12:18:27.485Z,0.87
2018-12-11T12:24:22.476Z,7.98
2018-12-11T12:30:17.478Z,9.02
2018-12-11T12:36:12.479Z,9.58
2018-12-11T12:42:07.519Z,10.07
2018-12-11T12:48:02.496Z,9.07
2018-12-11T12:53:57.497Z,10.62
2018-12-11T12:59:52.514Z,9.11
2018-12-11T13:05:47.482Z,7.92
2018-12-11T13:11:42.501Z,6.53
2018-12-11T13:17:37.482Z,6.58
2018-12-11T13:23:32.528Z,6.26
2018-12-11T13:29:27.508Z,4.06
2018-12-11T13:35:22.574Z,3.66
2018-12-11T13:41:17.507Z,1.13
2018-12-11T13:47:12.500Z,0.67
2018-12-11T13:53:07.534Z,0.83
2018-12-11T13:59:02.483Z,0.6
2018-12-11T14:04:57.494Z,0.59
2018-12-11T14:10:52.494Z,1.18
2018-12-11T14:16:47.522Z,0.59
2018-12-11T14:22:42.523Z,0.71
2018-12-11T14:28:37.547Z,0.8
2018-12-11T14:34:32.499Z,1.65
2018-12-11T14:40:27.555Z,1.13
2018-12-11T14:46:22.529Z,0.82
2018-12-11T14:52:17.491Z,0.68
2018-12-11T14:58:12.576Z,0.58
2018-12-11T15:04:07.566Z,0.48
2018-12-11T15:10:02.553Z,0.5
2018-12-11T15:15:57.539Z,10.15
2018-12-11T15:21:52.503Z,1.46
2018-12-11T15:27:47.575Z,1.07
2018-12-11T15:33:42.504Z,1.79
2018-12-11T15:39:37.543Z,2.23
2018-12-11T15:45:32.518Z,3.61
2018-12-11T15:51:27.505Z,2.89
2018-12-11T15:57:22.507Z,2.97
2018-12-11T16:03:17.983Z,4.8
2018-12-11T16:09:13.627Z,2.14
2018-12-11T16:15:07.517Z,2.6
2018-12-11T16:21:02.578Z,6.38
2018-12-11T16:26:57.509Z,4.71
2018-12-11T16:32:52.548Z,6.34
2018-12-11T16:38:47.523Z,3.98
2018-12-11T16:44:42.549Z,18.28
2018-12-11T16:50:37.521Z,4.63
2018-12-11T16:56:32.512Z,3.74
2018-12-11T17:02:27.508Z,38.36
2018-12-11T17:08:22.540Z,4.02
2018-12-11T17:14:17.549Z,5.06
2018-12-11T17:20:12.544Z,3.98
2018-12-11T17:26:07.530Z,4.63
2018-12-11T17:32:02.542Z,9.92
2018-12-11T17:37:57.528Z,6.78
2018-12-11T17:43:52.565Z,14.59
2018-12-11T17:49:47.537Z,7.47
2018-12-11T17:55:42.596Z,5.07
2018-12-11T18:01:37.533Z,5.29
2018-12-11T18:07:32.532Z,5.95
2018-12-11T18:13:27.579Z,9.76
2018-12-11T18:19:22.537Z,12.81
2018-12-11T18:25:17.562Z,9.69
2018-12-11T18:31:12.545Z,23.83
2018-12-11T18:37:07.556Z,18.88
2018-12-11T18:43:02.614Z,37.92
2018-12-11T18:48:57.540Z,22.8
2018-12-11T18:54:52.565Z,21.21
2018-12-11T19:00:47.542Z,10.74
2018-12-11T19:06:42.565Z,9.73
2018-12-11T19:12:37.570Z,5.31
2018-12-11T19:18:32.556Z,10.2
2018-12-11T19:24:27.585Z,9.14
2018-12-11T19:30:22.555Z,5.93
2018-12-11T19:36:17.567Z,4.97
2018-12-11T19:42:12.578Z,6.08
2018-12-11T19:48:07.623Z,8.84
2018-12-11T19:54:02.583Z,12.14
2018-12-11T19:59:57.574Z,8.07
2018-12-11T20:05:52.596Z,6.96
2018-12-11T20:11:47.587Z,5.54
2018-12-11T20:17:42.583Z,3.88
2018-12-11T20:23:37.573Z,7.47
2018-12-11T20:29:32.598Z,4.89
2018-12-11T20:35:27.605Z,2.55
2018-12-11T20:41:22.569Z,1.97
2018-12-11T20:47:17.575Z,2.72
2018-12-11T20:53:12.619Z,5.98
2018-12-11T20:59:07.596Z,2.25
2018-12-11T21:05:02.617Z,1.67
2018-12-11T21:10:57.610Z,1.91
2018-12-11T21:16:52.577Z,3.18
2018-12-11T21:22:47.581Z,9.03
2018-12-11T21:28:42.591Z,7.77
2018-12-11T21:34:37.589Z,42.87
2018-12-11T21:40:32.715Z,26.41
2018-12-11T21:46:27.617Z,30.35
2018-12-11T21:52:22.585Z,18.26
2018-12-11T21:58:17.601Z,19.23
2018-12-11T22:04:12.587Z,9.21
2018-12-11T22:10:07.608Z,3.81
2018-12-11T22:16:02.652Z,3.87
2018-12-11T22:21:57.594Z,5.2
2018-12-11T22:27:52.612Z,5.63
2018-12-11T22:33:47.605Z,5.21
2018-12-11T22:39:42.617Z,3.18
2018-12-11T22:45:37.601Z,4
2018-12-11T22:51:32.634Z,3.01
2018-12-11T22:57:27.629Z,3.67
2018-12-11T23:03:22.698Z,4.6
2018-12-11T23:09:17.624Z,3.82
2018-12-11T23:15:12.649Z,2.88
2018-12-11T23:21:07.632Z,5.61
2018-12-11T23:27:02.637Z,5.17
2018-12-11T23:32:57.638Z,5.54
2018-12-11T23:38:52.616Z,3.01
2018-12-11T23:44:47.628Z,10.42
2018-12-11T23:50:42.632Z,4.84
2018-12-11T23:56:37.604Z,5.06
